Time;durP1;ratioP1;P1;durP2;ratioP2;P2;SDS_P1;SDS_P2;PMS_P1;PMS_P2;Temp;Humidity;BMP_temperature;BMP_pressure;BME280_temperature;BME280_humidity;BME280_pressure;Samples;Min_cycle;Max_cycle;Signal;HPM_P1;HPM_P2
2022/03/20 00:00:28;;;;;;;12.77;9.47;;;;;;;;;;5073308;28;20222;-73
2022/03/20 00:02:57;;;;;;;12.00;9.07;;;;;;;;;;5072408;28;20249;-73
2022/03/20 00:05:26;;;;;;;17.30;10.20;;;;;;;;;;5071858;28;20297;-74
2022/03/20 00:07:54;;;;;;;16.80;10.33;;;;;;;;;;5068484;28;20230;-73
2022/03/20 00:10:23;;;;;;;13.93;9.60;;;;;;;;;;5067825;28;20667;-73
2022/03/20 00:12:53;;;;;;;12.40;9.70;;;;;;;;;;5072694;28;20577;-74
2022/03/20 00:15:21;;;;;;;15.53;10.70;;;;;;;;;;5073043;28;20196;-74
2022/03/20 00:17:50;;;;;;;14.77;11.30;;;;;;;;;;5072557;28;20232;-74
2022/03/20 00:20:19;;;;;;;17.03;11.00;;;;;;;;;;5072236;28;20685;-74
2022/03/20 00:22:47;;;;;;;16.83;11.07;;;;;;;;;;5074023;28;20564;-74
2022/03/20 00:25:16;;;;;;;15.23;9.97;;;;;;;;;;5075497;28;20207;-74
2022/03/20 00:27:45;;;;;;;15.07;10.97;;;;;;;;;;5076447;28;20223;-74
2022/03/20 00:30:14;;;;;;;14.00;10.93;;;;;;;;;;5076091;28;20202;-73
2022/03/20 00:32:43;;;;;;;14.83;11.23;;;;;;;;;;5076122;28;20256;-74
2022/03/20 00:35:11;;;;;;;14.63;11.77;;;;;;;;;;5075083;28;20683;-74
2022/03/20 00:37:40;;;;;;;14.23;11.50;;;;;;;;;;5075962;28;20279;-74
2022/03/20 00:40:09;;;;;;;15.87;11.17;;;;;;;;;;5075643;28;20218;-74
2022/03/20 00:42:37;;;;;;;16.27;11.87;;;;;;;;;;5065513;28;20209;-74
2022/03/20 00:45:06;;;;;;;16.37;11.80;;;;;;;;;;5055705;28;20249;-74
2022/03/20 00:47:36;;;;;;;16.53;12.07;;;;;;;;;;5059300;28;20217;-74
2022/03/20 00:50:05;;;;;;;15.47;11.70;;;;;;;;;;5076337;28;20195;-74
2022/03/20 00:52:34;;;;;;;16.80;10.97;;;;;;;;;;5075921;28;20282;-74
2022/03/20 00:55:02;;;;;;;15.40;11.83;;;;;;;;;;5075418;28;20203;-74
2022/03/20 00:57:30;;;;;;;17.97;10.97;;;;;;;;;;5075705;28;20239;-73
2022/03/20 00:59:59;;;;;;;17.57;11.57;;;;;;;;;;5075392;28;20556;-73
2022/03/20 01:02:27;;;;;;;17.93;12.40;;;;;;;;;;5075493;28;20657;-74
2022/03/20 01:04:57;;;;;;;14.20;11.20;;;;;;;;;;5075240;28;20341;-74
2022/03/20 01:07:26;;;;;;;18.10;12.23;;;;;;;;;;5075875;28;20265;-74
2022/03/20 01:09:55;;;;;;;17.23;12.80;;;;;;;;;;5075202;28;20199;-74
2022/03/20 01:12:23;;;;;;;15.23;11.93;;;;;;;;;;5075528;28;20690;-73
2022/03/20 01:14:51;;;;;;;16.13;12.23;;;;;;;;;;5075452;28;20204;-73
2022/03/20 01:17:20;;;;;;;15.47;11.80;;;;;;;;;;5059027;28;20278;-74
2022/03/20 01:19:48;;;;;;;18.30;12.63;;;;;;;;;;5055370;28;20208;-74
2022/03/20 01:22:18;;;;;;;16.77;12.93;;;;;;;;;;5074258;28;20211;-73
2022/03/20 01:24:47;;;;;;;16.10;12.50;;;;;;;;;;5074895;28;20632;-74
2022/03/20 01:27:16;;;;;;;17.13;12.63;;;;;;;;;;5075262;28;20629;-73
2022/03/20 01:29:45;;;;;;;19.27;13.83;;;;;;;;;;5075266;28;20207;-73
2022/03/20 01:32:14;;;;;;;16.23;12.23;;;;;;;;;;5074537;28;20245;-74
2022/03/20 01:34:42;;;;;;;17.47;13.37;;;;;;;;;;5054761;28;20204;-74
2022/03/20 01:37:11;;;;;;;19.93;13.93;;;;;;;;;;5054914;28;20258;-74
2022/03/20 01:39:40;;;;;;;18.37;12.97;;;;;;;;;;5069215;28;20207;-74
2022/03/20 01:42:09;;;;;;;16.40;13.57;;;;;;;;;;5074948;28;20235;-74
2022/03/20 01:44:37;;;;;;;16.93;13.47;;;;;;;;;;5074601;28;20602;-74
2022/03/20 01:47:08;;;;;;;17.67;13.90;;;;;;;;;;5075288;28;20223;-74
2022/03/20 01:49:36;;;;;;;18.67;13.27;;;;;;;;;;5072606;28;20215;-74
2022/03/20 01:52:11;;;;;;;18.33;13.70;;;;;;;;;;5071824;28;20199;-74
2022/03/20 01:54:42;;;;;;;20.57;13.90;;;;;;;;;;5074970;28;20232;-74
2022/03/20 01:57:12;;;;;;;18.33;13.40;;;;;;;;;;5074951;28;20227;-74
2022/03/20 01:59:40;;;;;;;21.10;14.10;;;;;;;;;;5073551;28;20204;-74
2022/03/20 02:02:09;;;;;;;18.47;13.17;;;;;;;;;;5073112;28;20219;-73
2022/03/20 02:04:38;;;;;;;19.57;14.20;;;;;;;;;;5071474;28;20541;-73
2022/03/20 02:07:07;;;;;;;21.60;14.27;;;;;;;;;;5073931;28;20230;-73
2022/03/20 02:09:37;;;;;;;19.63;14.30;;;;;;;;;;5067175;28;20614;-74
2022/03/20 02:12:07;;;;;;;19.97;13.73;;;;;;;;;;5067460;28;20204;-74
2022/03/20 02:14:35;;;;;;;16.63;13.77;;;;;;;;;;5060652;28;20198;-74
2022/03/20 02:17:04;;;;;;;19.77;14.27;;;;;;;;;;5064889;28;20587;-74
2022/03/20 02:19:34;;;;;;;18.53;14.00;;;;;;;;;;5073629;28;20210;-74
2022/03/20 02:22:04;;;;;;;21.93;14.90;;;;;;;;;;5072694;28;20343;-74
2022/03/20 02:24:40;;;;;;;19.10;15.17;;;;;;;;;;5073612;28;20712;-74
2022/03/20 02:27:11;;;;;;;19.20;14.23;;;;;;;;;;5073814;28;20222;-74
2022/03/20 02:29:41;;;;;;;20.67;14.33;;;;;;;;;;5073968;28;20240;-73
2022/03/20 02:32:10;;;;;;;17.57;14.40;;;;;;;;;;5073165;28;20206;-73
2022/03/20 02:34:39;;;;;;;19.53;14.33;;;;;;;;;;5067442;28;20286;-74
2022/03/20 02:37:09;;;;;;;19.70;14.40;;;;;;;;;;5070782;28;20222;-73
2022/03/20 02:39:37;;;;;;;22.87;15.77;;;;;;;;;;5072569;28;20644;-74
2022/03/20 02:42:07;;;;;;;20.57;14.73;;;;;;;;;;5072446;28;20222;-74
2022/03/20 02:44:53;;;;;;;18.63;14.77;;;;;;;;;;5069181;28;20615;-73
2022/03/20 02:47:24;;;;;;;21.77;15.60;;;;;;;;;;5073078;28;20283;-74
2022/03/20 02:49:54;;;;;;;19.73;14.50;;;;;;;;;;5072757;28;20199;-73
2022/03/20 02:52:45;;;;;;;22.37;15.23;;;;;;;;;;5072897;28;20244;-73
2022/03/20 02:55:14;;;;;;;18.27;14.10;;;;;;;;;;5072579;28;20260;-74
2022/03/20 02:57:43;;;;;;;22.63;14.33;;;;;;;;;;5073368;28;20268;-74
2022/03/20 03:00:11;;;;;;;18.83;14.50;;;;;;;;;;5072219;28;20198;-74
2022/03/20 03:02:43;;;;;;;21.23;15.43;;;;;;;;;;5073317;28;20223;-74
2022/03/20 03:05:14;;;;;;;19.87;14.50;;;;;;;;;;5072353;28;20227;-73
2022/03/20 03:13:17;;;;;;;23.00;14.97;;;;;;;;;;5067272;28;20645;-73
2022/03/20 03:15:46;;;;;;;21.07;15.33;;;;;;;;;;5072858;28;20211;-74
2022/03/20 03:18:14;;;;;;;18.03;14.97;;;;;;;;;;5073847;28;20227;-74
2022/03/20 03:20:43;;;;;;;22.17;15.40;;;;;;;;;;5073389;28;20256;-74
2022/03/20 03:23:13;;;;;;;19.80;15.43;;;;;;;;;;5072034;28;20653;-74
2022/03/20 03:25:41;;;;;;;21.70;15.83;;;;;;;;;;5072359;28;20920;-74
2022/03/20 03:28:11;;;;;;;20.70;14.90;;;;;;;;;;5072664;28;20279;-74
2022/03/20 03:30:40;;;;;;;16.97;14.57;;;;;;;;;;5072250;28;20209;-74
2022/03/20 03:33:08;;;;;;;21.90;15.63;;;;;;;;;;5073651;28;20255;-75
2022/03/20 03:35:41;;;;;;;25.13;16.27;;;;;;;;;;5072756;28;20202;-74
2022/03/20 03:38:11;;;;;;;19.63;14.90;;;;;;;;;;5071788;28;20233;-73
2022/03/20 03:40:41;;;;;;;21.27;15.43;;;;;;;;;;5070996;28;20564;-74
2022/03/20 03:43:10;;;;;;;21.33;15.67;;;;;;;;;;5071519;28;20688;-73
2022/03/20 03:45:40;;;;;;;20.30;15.63;;;;;;;;;;5072217;28;20221;-74
2022/03/20 03:48:08;;;;;;;19.67;15.07;;;;;;;;;;5072799;28;20275;-75
2022/03/20 03:50:39;;;;;;;21.03;15.27;;;;;;;;;;5068976;28;20568;-74
2022/03/20 03:53:08;;;;;;;22.83;15.63;;;;;;;;;;5073031;28;20198;-73
2022/03/20 03:55:36;;;;;;;23.80;15.60;;;;;;;;;;5072372;28;20610;-73
2022/03/20 03:58:06;;;;;;;21.23;15.27;;;;;;;;;;5074319;28;20232;-74
2022/03/20 04:00:35;;;;;;;21.73;15.50;;;;;;;;;;5075651;28;20213;-74
2022/03/20 04:03:04;;;;;;;21.57;15.53;;;;;;;;;;5076697;28;20320;-74
2022/03/20 04:05:34;;;;;;;24.60;15.33;;;;;;;;;;5075735;28;20206;-74
2022/03/20 04:08:03;;;;;;;20.93;15.90;;;;;;;;;;5076224;28;20229;-74
2022/03/20 04:10:31;;;;;;;20.53;16.10;;;;;;;;;;5075732;28;20213;-74
2022/03/20 04:12:59;;;;;;;21.10;16.27;;;;;;;;;;5075950;28;20211;-74
2022/03/20 04:15:31;;;;;;;23.20;14.93;;;;;;;;;;5074235;28;20221;-74
2022/03/20 04:18:01;;;;;;;20.07;16.30;;;;;;;;;;5075939;28;20229;-74
2022/03/20 04:20:30;;;;;;;24.00;15.77;;;;;;;;;;5075946;28;20213;-74
2022/03/20 04:25:44;;;;;;;20.50;16.40;;;;;;;;;;5076074;28;20256;-73
2022/03/20 04:28:13;;;;;;;23.17;15.63;;;;;;;;;;5076250;28;20303;-74
2022/03/20 04:30:42;;;;;;;21.00;16.17;;;;;;;;;;5075485;28;20231;-74
2022/03/20 04:33:11;;;;;;;21.17;15.97;;;;;;;;;;5073944;28;20610;-74
2022/03/20 04:35:39;;;;;;;21.63;16.20;;;;;;;;;;5074924;28;20204;-74
2022/03/20 04:38:08;;;;;;;20.87;15.87;;;;;;;;;;5075684;28;20227;-74
2022/03/20 04:40:36;;;;;;;23.80;16.47;;;;;;;;;;5073199;28;20209;-74
2022/03/20 04:43:05;;;;;;;21.77;16.27;;;;;;;;;;5055998;28;20660;-74
2022/03/20 04:45:33;;;;;;;22.43;15.67;;;;;;;;;;5069631;28;20214;-74
2022/03/20 04:59:07;;;;;;;23.43;16.33;;;;;;;;;;5075013;28;20198;-73
2022/03/20 05:01:36;;;;;;;21.03;16.20;;;;;;;;;;5075297;28;20546;-73
2022/03/20 05:04:06;;;;;;;20.50;15.67;;;;;;;;;;5074900;28;20208;-74
2022/03/20 05:06:36;;;;;;;22.97;16.33;;;;;;;;;;5075119;28;20761;-74
2022/03/20 05:14:36;;;;;;;20.50;15.70;;;;;;;;;;5074497;28;20205;-74
2022/03/20 05:17:05;;;;;;;21.13;16.33;;;;;;;;;;5075003;28;20225;-74
2022/03/20 05:19:35;;;;;;;23.10;16.50;;;;;;;;;;5073014;28;20646;-74
2022/03/20 05:22:04;;;;;;;21.07;16.17;;;;;;;;;;5068872;28;20598;-74
2022/03/20 05:24:35;;;;;;;23.03;16.80;;;;;;;;;;5073068;28;20282;-74
2022/03/20 05:27:03;;;;;;;23.80;17.23;;;;;;;;;;5073514;28;20222;-74
2022/03/20 05:29:32;;;;;;;19.80;15.83;;;;;;;;;;5071781;28;20232;-74
2022/03/20 05:32:02;;;;;;;24.27;15.70;;;;;;;;;;5073123;28;20201;-74
2022/03/20 05:34:32;;;;;;;22.00;16.30;;;;;;;;;;5074201;28;20209;-74
2022/03/20 05:37:02;;;;;;;24.30;17.40;;;;;;;;;;5074462;28;20223;-74
2022/03/20 05:39:31;;;;;;;23.80;16.07;;;;;;;;;;5073805;28;20254;-74
2022/03/20 05:41:59;;;;;;;19.37;15.10;;;;;;;;;;5068981;28;20201;-75
2022/03/20 05:44:28;;;;;;;20.27;15.63;;;;;;;;;;5060370;28;20724;-74
2022/03/20 05:46:58;;;;;;;22.67;15.97;;;;;;;;;;5074937;28;20274;-74
2022/03/20 05:49:26;;;;;;;22.87;16.57;;;;;;;;;;5072931;28;20201;-74
2022/03/20 05:51:55;;;;;;;20.23;15.63;;;;;;;;;;5073742;28;20203;-75
2022/03/20 05:54:25;;;;;;;21.77;15.70;;;;;;;;;;5073895;28;20233;-74
2022/03/20 05:59:39;;;;;;;25.37;16.10;;;;;;;;;;5073117;28;20654;-74
2022/03/20 06:02:09;;;;;;;22.23;16.30;;;;;;;;;;5074095;28;20262;-73
2022/03/20 06:04:38;;;;;;;20.30;15.53;;;;;;;;;;5070538;28;20200;-74
2022/03/20 06:07:08;;;;;;;20.67;15.77;;;;;;;;;;5055009;28;20305;-74
2022/03/20 06:09:39;;;;;;;24.83;16.17;;;;;;;;;;5072955;28;20205;-74
2022/03/20 06:12:08;;;;;;;21.23;16.13;;;;;;;;;;5073499;28;20201;-74
2022/03/20 06:14:36;;;;;;;21.37;15.57;;;;;;;;;;5073366;28;20208;-74
2022/03/20 06:17:06;;;;;;;19.20;15.37;;;;;;;;;;5073243;28;20224;-74
2022/03/20 06:19:35;;;;;;;21.87;15.30;;;;;;;;;;5072648;28;20214;-74
2022/03/20 06:22:04;;;;;;;21.40;16.10;;;;;;;;;;5072451;28;20280;-74
2022/03/20 06:24:33;;;;;;;21.27;15.53;;;;;;;;;;5072658;28;20230;-74
2022/03/20 06:27:03;;;;;;;22.30;15.87;;;;;;;;;;5072914;28;20233;-74
2022/03/20 06:29:31;;;;;;;19.77;15.60;;;;;;;;;;5072988;28;20239;-73
2022/03/20 06:32:00;;;;;;;22.73;16.53;;;;;;;;;;5073538;28;20255;-74
2022/03/20 06:34:28;;;;;;;23.43;16.57;;;;;;;;;;5073731;28;20212;-73
2022/03/20 06:36:59;;;;;;;21.00;15.20;;;;;;;;;;5074246;28;20313;-74
2022/03/20 06:39:27;;;;;;;23.27;16.33;;;;;;;;;;5072189;28;20651;-74
2022/03/20 06:41:57;;;;;;;21.47;15.97;;;;;;;;;;5066100;28;20205;-74
2022/03/20 06:44:27;;;;;;;20.00;15.57;;;;;;;;;;5072721;28;20225;-73
2022/03/20 06:46:55;;;;;;;21.33;16.37;;;;;;;;;;5063360;28;20217;-74
2022/03/20 06:49:24;;;;;;;22.03;16.37;;;;;;;;;;5072921;28;20199;-74
2022/03/20 06:51:52;;;;;;;23.37;15.87;;;;;;;;;;5071808;28;20203;-74
2022/03/20 06:54:21;;;;;;;19.57;15.20;;;;;;;;;;5072984;28;20216;-74
2022/03/20 06:56:50;;;;;;;22.47;16.50;;;;;;;;;;5073940;28;20229;-74
2022/03/20 06:59:18;;;;;;;19.07;15.47;;;;;;;;;;5072701;28;20264;-74
2022/03/20 07:01:49;;;;;;;20.10;14.77;;;;;;;;;;5072437;28;20289;-74
2022/03/20 07:04:17;;;;;;;19.33;15.00;;;;;;;;;;5071285;28;20288;-75
2022/03/20 07:06:46;;;;;;;22.00;16.13;;;;;;;;;;5067739;28;20215;-74
2022/03/20 07:09:14;;;;;;;20.70;14.73;;;;;;;;;;5072527;28;20219;-74
2022/03/20 07:11:42;;;;;;;19.87;15.27;;;;;;;;;;5072592;28;20203;-75
2022/03/20 07:14:11;;;;;;;21.23;16.13;;;;;;;;;;5067253;28;20205;-74
2022/03/20 07:16:42;;;;;;;21.50;15.27;;;;;;;;;;5066967;28;20265;-74
2022/03/20 07:19:12;;;;;;;21.57;15.50;;;;;;;;;;5071606;28;20290;-74
2022/03/20 07:21:41;;;;;;;21.50;15.60;;;;;;;;;;5072324;28;20212;-74
2022/03/20 07:24:13;;;;;;;18.17;15.70;;;;;;;;;;5071610;28;20278;-75
2022/03/20 07:29:39;;;;;;;21.73;15.63;;;;;;;;;;5007234;28;20270;-74
2022/03/20 07:32:09;;;;;;;21.67;15.80;;;;;;;;;;5058161;28;20190;-75
2022/03/20 07:34:40;;;;;;;20.87;15.17;;;;;;;;;;5068520;28;20203;-74
2022/03/20 07:37:09;;;;;;;19.70;15.43;;;;;;;;;;5070842;28;20229;-74
2022/03/20 07:39:38;;;;;;;22.03;16.40;;;;;;;;;;5061888;28;20202;-74
2022/03/20 07:42:08;;;;;;;22.17;16.30;;;;;;;;;;5068063;28;20660;-75
2022/03/20 07:44:37;;;;;;;21.77;16.00;;;;;;;;;;5068232;28;20214;-74
2022/03/20 07:47:08;;;;;;;22.40;16.23;;;;;;;;;;5069838;28;20237;-75
2022/03/20 07:49:37;;;;;;;21.83;15.90;;;;;;;;;;5066190;28;20253;-75
2022/03/20 07:52:07;;;;;;;20.87;15.70;;;;;;;;;;5068156;28;20239;-74
2022/03/20 07:54:37;;;;;;;24.33;16.63;;;;;;;;;;5063051;28;20226;-74
2022/03/20 07:57:07;;;;;;;24.47;17.00;;;;;;;;;;5071095;28;20673;-74
2022/03/20 07:59:36;;;;;;;23.83;16.33;;;;;;;;;;5066904;28;20724;-74
2022/03/20 08:02:06;;;;;;;21.13;16.17;;;;;;;;;;5068500;28;20196;-75
2022/03/20 08:04:35;;;;;;;21.60;16.00;;;;;;;;;;5070895;28;20307;-74
2022/03/20 08:07:04;;;;;;;21.40;16.87;;;;;;;;;;5068362;28;20276;-75
2022/03/20 08:09:34;;;;;;;27.53;17.10;;;;;;;;;;5069911;28;20537;-74
2022/03/20 08:12:02;;;;;;;24.97;15.93;;;;;;;;;;5065975;28;20294;-74
2022/03/20 08:14:51;;;;;;;24.30;16.33;;;;;;;;;;5057184;28;20221;-74
2022/03/20 08:17:19;;;;;;;21.43;17.50;;;;;;;;;;5072562;28;20226;-74
2022/03/20 08:19:48;;;;;;;22.33;16.63;;;;;;;;;;5072074;28;20251;-75
2022/03/20 08:22:16;;;;;;;23.77;17.07;;;;;;;;;;5064321;28;20205;-74
2022/03/20 08:24:48;;;;;;;24.93;16.67;;;;;;;;;;5072218;28;20253;-75
2022/03/20 08:27:19;;;;;;;23.77;17.63;;;;;;;;;;5072511;28;20917;-75
2022/03/20 08:29:48;;;;;;;21.27;16.80;;;;;;;;;;5072369;28;20202;-74
2022/03/20 08:32:16;;;;;;;24.93;17.00;;;;;;;;;;5073053;28;20698;-73
2022/03/20 08:34:52;;;;;;;20.80;16.80;;;;;;;;;;5071058;28;20570;-75
2022/03/20 08:37:21;;;;;;;21.67;16.47;;;;;;;;;;5066963;28;20244;-74
2022/03/20 08:39:51;;;;;;;19.67;16.90;;;;;;;;;;5064741;28;20691;-74
2022/03/20 08:42:19;;;;;;;24.57;16.63;;;;;;;;;;5063602;28;20231;-75
2022/03/20 08:44:50;;;;;;;22.03;17.30;;;;;;;;;;5064416;28;20222;-75
2022/03/20 08:47:19;;;;;;;24.17;16.80;;;;;;;;;;5074373;28;20221;-75
2022/03/20 08:49:48;;;;;;;23.10;17.37;;;;;;;;;;5074793;28;20199;-75
2022/03/20 08:52:17;;;;;;;25.87;18.10;;;;;;;;;;5072219;28;20204;-74
2022/03/20 08:54:46;;;;;;;22.67;16.70;;;;;;;;;;5069022;28;20656;-74
2022/03/20 08:57:16;;;;;;;23.60;17.37;;;;;;;;;;5073447;28;20222;-75
2022/03/20 08:59:44;;;;;;;23.63;17.33;;;;;;;;;;5069550;28;20201;-74
2022/03/20 09:02:13;;;;;;;24.67;17.87;;;;;;;;;;5074440;28;20202;-74
2022/03/20 09:04:41;;;;;;;24.60;17.87;;;;;;;;;;5075050;28;20309;-75
2022/03/20 09:07:10;;;;;;;22.57;17.50;;;;;;;;;;5074866;28;20226;-75
2022/03/20 09:09:38;;;;;;;22.57;17.33;;;;;;;;;;5074860;28;20260;-75
2022/03/20 09:12:08;;;;;;;23.07;18.20;;;;;;;;;;5074241;28;20672;-75
2022/03/20 09:14:38;;;;;;;22.67;17.33;;;;;;;;;;5075185;28;20244;-75
2022/03/20 09:19:55;;;;;;;24.90;17.50;;;;;;;;;;5055372;28;20573;-74
2022/03/20 09:22:25;;;;;;;24.63;17.07;;;;;;;;;;5073626;28;20198;-74
2022/03/20 09:24:54;;;;;;;21.27;17.43;;;;;;;;;;5067644;28;20222;-75
2022/03/20 09:27:23;;;;;;;24.87;17.93;;;;;;;;;;5074007;28;20641;-74
2022/03/20 09:29:53;;;;;;;22.47;17.07;;;;;;;;;;5074786;28;20252;-74
2022/03/20 09:32:21;;;;;;;24.33;17.60;;;;;;;;;;5072882;28;20275;-74
2022/03/20 09:34:50;;;;;;;23.27;17.80;;;;;;;;;;5074430;28;20228;-75
2022/03/20 09:37:18;;;;;;;22.07;17.77;;;;;;;;;;5074527;28;20632;-74
2022/03/20 09:39:46;;;;;;;22.67;18.00;;;;;;;;;;5075002;28;20206;-74
2022/03/20 09:42:15;;;;;;;28.33;19.00;;;;;;;;;;5072453;28;20256;-75
2022/03/20 09:44:43;;;;;;;23.03;17.53;;;;;;;;;;5073462;28;20637;-74
2022/03/20 09:47:15;;;;;;;26.40;17.93;;;;;;;;;;5075110;28;20218;-75
2022/03/20 09:49:45;;;;;;;24.10;17.33;;;;;;;;;;5073221;28;20202;-74
2022/03/20 09:52:13;;;;;;;22.97;17.83;;;;;;;;;;5073201;28;20599;-76
2022/03/20 09:54:42;;;;;;;24.80;17.30;;;;;;;;;;5072406;28;20210;-74
2022/03/20 09:57:11;;;;;;;23.30;17.17;;;;;;;;;;5071883;28;20218;-73
2022/03/20 09:59:40;;;;;;;22.13;17.43;;;;;;;;;;5068960;28;20210;-73
2022/03/20 10:02:10;;;;;;;21.93;17.17;;;;;;;;;;5073197;28;20202;-73
2022/03/20 10:04:56;;;;;;;22.37;17.97;;;;;;;;;;5074340;28;20305;-73
2022/03/20 10:07:25;;;;;;;23.50;17.47;;;;;;;;;;5073664;28;20705;-73
2022/03/20 10:10:10;;;;;;;22.43;17.40;;;;;;;;;;5074126;28;20278;-73
2022/03/20 10:12:40;;;;;;;24.23;17.37;;;;;;;;;;5072781;28;20276;-73
2022/03/20 10:15:10;;;;;;;21.80;17.10;;;;;;;;;;5073795;28;20203;-74
2022/03/20 10:17:40;;;;;;;22.27;17.27;;;;;;;;;;5071746;28;20249;-74
2022/03/20 10:20:17;;;;;;;22.40;17.17;;;;;;;;;;5074554;28;20609;-74
2022/03/20 10:22:45;;;;;;;21.30;17.80;;;;;;;;;;5059069;28;20191;-73
2022/03/20 10:25:14;;;;;;;21.40;17.50;;;;;;;;;;5066502;28;20222;-74
2022/03/20 10:27:57;;;;;;;22.37;17.83;;;;;;;;;;5069631;28;20227;-73
2022/03/20 10:30:25;;;;;;;20.90;17.10;;;;;;;;;;5058262;28;20186;-73
2022/03/20 10:32:54;;;;;;;20.97;16.73;;;;;;;;;;5069536;28;20216;-73
2022/03/20 10:35:24;;;;;;;23.03;17.37;;;;;;;;;;5063812;28;20816;-73
2022/03/20 10:37:54;;;;;;;21.37;16.93;;;;;;;;;;5069680;28;20222;-73
2022/03/20 10:40:24;;;;;;;22.97;18.10;;;;;;;;;;5063196;28;20203;-73
2022/03/20 10:43:09;;;;;;;21.53;16.77;;;;;;;;;;5069769;28;20233;-73
2022/03/20 10:45:51;;;;;;;21.97;17.33;;;;;;;;;;5069492;28;20234;-73
2022/03/20 10:48:31;;;;;;;19.73;17.13;;;;;;;;;;5069970;28;20206;-74
2022/03/20 10:51:01;;;;;;;22.00;17.70;;;;;;;;;;5059833;28;20209;-74
2022/03/20 10:53:29;;;;;;;20.20;17.00;;;;;;;;;;5073300;28;20610;-73
2022/03/20 10:55:58;;;;;;;20.20;17.37;;;;;;;;;;5071770;28;20199;-73
2022/03/20 10:58:27;;;;;;;21.37;17.00;;;;;;;;;;5071872;28;20594;-74
2022/03/20 11:00:56;;;;;;;21.33;17.63;;;;;;;;;;5071298;28;20715;-73
2022/03/20 11:03:25;;;;;;;20.53;17.43;;;;;;;;;;5070741;28;20202;-73
2022/03/20 11:05:54;;;;;;;19.90;16.43;;;;;;;;;;5069257;28;20218;-73
2022/03/20 11:08:26;;;;;;;18.47;16.20;;;;;;;;;;5072427;28;20598;-73
2022/03/20 11:10:54;;;;;;;20.40;16.90;;;;;;;;;;5068775;28;20207;-74
2022/03/20 11:13:23;;;;;;;19.63;15.87;;;;;;;;;;5070529;28;20272;-73
2022/03/20 11:15:56;;;;;;;20.37;17.60;;;;;;;;;;5072992;28;20195;-72
2022/03/20 11:18:26;;;;;;;19.20;16.93;;;;;;;;;;5066855;28;20206;-74
2022/03/20 11:20:55;;;;;;;19.60;17.10;;;;;;;;;;5071975;28;20210;-74
2022/03/20 11:23:25;;;;;;;18.80;16.60;;;;;;;;;;5066546;28;20237;-74
2022/03/20 11:25:55;;;;;;;18.63;16.70;;;;;;;;;;5071936;28;20214;-74
2022/03/20 11:28:24;;;;;;;20.10;16.47;;;;;;;;;;5070197;28;20211;-73
2022/03/20 11:30:58;;;;;;;18.80;16.77;;;;;;;;;;5072751;28;20620;-73
2022/03/20 11:33:27;;;;;;;20.07;15.73;;;;;;;;;;5072095;28;20207;-73
2022/03/20 11:35:55;;;;;;;18.00;16.10;;;;;;;;;;5060871;28;20199;-74
2022/03/20 11:38:26;;;;;;;19.47;16.77;;;;;;;;;;5070089;28;22013;-73
2022/03/20 11:41:11;;;;;;;18.20;16.30;;;;;;;;;;5063612;28;20215;-74
2022/03/20 11:43:41;;;;;;;19.03;16.27;;;;;;;;;;5071337;28;20717;-73
2022/03/20 11:46:21;;;;;;;17.20;15.10;;;;;;;;;;5066291;28;20225;-74
2022/03/20 11:49:05;;;;;;;18.63;16.13;;;;;;;;;;5073077;28;20680;-73
2022/03/20 11:52:07;;;;;;;18.70;16.03;;;;;;;;;;5063405;28;20692;-73
2022/03/20 11:54:57;;;;;;;18.97;15.83;;;;;;;;;;5010909;28;20644;-72
2022/03/20 11:57:39;;;;;;;19.43;16.00;;;;;;;;;;5009247;28;20224;-73
2022/03/20 12:00:12;;;;;;;18.47;16.07;;;;;;;;;;5054823;28;20278;-73
2022/03/20 12:02:52;;;;;;;19.13;15.97;;;;;;;;;;5066929;28;20205;-74
2022/03/20 12:05:29;;;;;;;18.00;16.10;;;;;;;;;;5064454;28;20194;-73
2022/03/20 12:08:06;;;;;;;17.47;15.63;;;;;;;;;;5065344;28;20585;-73
2022/03/20 12:10:44;;;;;;;16.97;15.10;;;;;;;;;;5069561;28;20202;-73
2022/03/20 12:13:20;;;;;;;17.97;15.87;;;;;;;;;;5065426;28;20646;-73
2022/03/20 12:15:48;;;;;;;16.57;14.80;;;;;;;;;;5071730;28;20255;-72
2022/03/20 12:18:17;;;;;;;18.83;16.47;;;;;;;;;;5069826;28;20227;-72
2022/03/20 12:24:29;;;;;;;20.10;16.40;;;;;;;;;;5066938;28;20189;-74
2022/03/20 12:27:18;;;;;;;17.67;15.33;;;;;;;;;;5070866;28;20255;-74
2022/03/20 12:29:47;;;;;;;16.97;15.17;;;;;;;;;;5075913;28;20230;-73
2022/03/20 12:32:20;;;;;;;18.27;15.57;;;;;;;;;;5075347;28;20202;-74
2022/03/20 12:35:15;;;;;;;18.57;15.93;;;;;;;;;;5071974;28;20260;-73
2022/03/20 12:37:44;;;;;;;18.00;15.63;;;;;;;;;;5068339;28;20242;-73
2022/03/20 12:40:16;;;;;;;16.97;15.17;;;;;;;;;;5072042;28;20233;-73
2022/03/20 12:43:08;;;;;;;18.00;15.87;;;;;;;;;;5069596;28;20226;-73
2022/03/20 12:45:38;;;;;;;19.30;15.87;;;;;;;;;;5075918;28;20202;-72
2022/03/20 12:48:07;;;;;;;17.53;15.73;;;;;;;;;;5075359;28;20325;-72
2022/03/20 12:50:39;;;;;;;18.10;14.50;;;;;;;;;;5073088;28;20601;-73
2022/03/20 12:53:08;;;;;;;18.00;15.30;;;;;;;;;;5074080;28;20195;-73
2022/03/20 12:55:40;;;;;;;16.90;15.20;;;;;;;;;;5075488;28;20293;-73
2022/03/20 12:58:14;;;;;;;17.27;15.47;;;;;;;;;;5075294;28;20288;-73
2022/03/20 13:00:42;;;;;;;16.13;14.43;;;;;;;;;;5072737;28;20198;-72
2022/03/20 13:03:12;;;;;;;17.73;15.87;;;;;;;;;;5074123;28;20285;-74
2022/03/20 13:05:47;;;;;;;19.40;15.20;;;;;;;;;;5074238;28;20211;-73
2022/03/20 13:08:20;;;;;;;17.67;15.17;;;;;;;;;;5075488;28;20234;-73
2022/03/20 13:10:49;;;;;;;17.60;15.00;;;;;;;;;;5074061;28;20203;-72
2022/03/20 13:13:20;;;;;;;16.70;14.70;;;;;;;;;;5071524;28;20672;-73
2022/03/20 13:15:49;;;;;;;18.27;15.30;;;;;;;;;;5075215;28;20613;-74
2022/03/20 13:18:18;;;;;;;17.57;14.83;;;;;;;;;;5074856;28;20225;-72
2022/03/20 13:20:48;;;;;;;16.07;14.47;;;;;;;;;;5074514;28;20534;-74
2022/03/20 13:23:19;;;;;;;17.13;14.80;;;;;;;;;;5073792;28;20260;-73
2022/03/20 13:25:48;;;;;;;19.60;14.87;;;;;;;;;;5074512;28;20260;-73
2022/03/20 13:28:26;;;;;;;18.40;14.83;;;;;;;;;;5074621;28;20260;-73
2022/03/20 13:30:56;;;;;;;15.47;13.97;;;;;;;;;;5071238;28;20351;-72
2022/03/20 13:33:31;;;;;;;15.90;14.30;;;;;;;;;;5073792;28;20206;-73
2022/03/20 13:36:01;;;;;;;16.27;14.57;;;;;;;;;;5074702;28;20252;-73
2022/03/20 13:38:33;;;;;;;17.20;14.87;;;;;;;;;;5075293;28;20194;-73
2022/03/20 13:41:06;;;;;;;16.27;14.10;;;;;;;;;;5075048;28;20232;-74
2022/03/20 13:43:36;;;;;;;15.77;14.07;;;;;;;;;;5072334;28;20210;-73
2022/03/20 13:46:12;;;;;;;15.73;13.63;;;;;;;;;;5074194;28;20210;-73
2022/03/20 13:48:41;;;;;;;17.13;14.23;;;;;;;;;;5074928;28;20202;-75
2022/03/20 13:51:09;;;;;;;16.70;14.90;;;;;;;;;;5069282;28;20260;-74
2022/03/20 13:53:40;;;;;;;15.87;13.67;;;;;;;;;;5065559;28;20208;-75
2022/03/20 13:56:21;;;;;;;17.27;14.00;;;;;;;;;;5072676;28;20198;-75
2022/03/20 13:59:03;;;;;;;17.60;13.97;;;;;;;;;;5073900;28;20206;-75
2022/03/20 14:01:32;;;;;;;16.07;14.37;;;;;;;;;;5074557;28;20205;-76
2022/03/20 14:04:10;;;;;;;16.60;14.50;;;;;;;;;;5073819;28;20195;-75
2022/03/20 14:06:40;;;;;;;17.53;14.70;;;;;;;;;;5074318;28;20218;-75
2022/03/20 14:09:08;;;;;;;16.40;14.70;;;;;;;;;;5075643;28;20264;-76
2022/03/20 14:11:37;;;;;;;18.10;14.17;;;;;;;;;;5074332;28;20195;-75
2022/03/20 14:14:07;;;;;;;17.33;13.80;;;;;;;;;;5074449;28;20210;-76
2022/03/20 14:16:37;;;;;;;16.03;14.20;;;;;;;;;;5074396;28;20272;-75
2022/03/20 14:19:07;;;;;;;16.43;14.03;;;;;;;;;;5074042;28;20187;-76
2022/03/20 14:21:36;;;;;;;15.77;14.10;;;;;;;;;;5073991;28;20667;-76
2022/03/20 14:24:07;;;;;;;15.53;13.93;;;;;;;;;;5073616;28;20685;-75
2022/03/20 14:26:37;;;;;;;17.43;14.67;;;;;;;;;;5073730;28;20264;-75
2022/03/20 14:39:26;;;;;;;15.47;13.40;;;;;;;;;;5074213;28;20687;-75
2022/03/20 14:40:43;;;;;;;15.07;13.50;;;;;;;;;;4998420;28;20279;-75
2022/03/20 14:43:12;;;;;;;15.10;13.60;;;;;;;;;;5069407;28;20657;-75
2022/03/20 14:45:42;;;;;;;16.73;14.10;;;;;;;;;;5073608;28;20206;-74
2022/03/20 14:48:11;;;;;;;15.90;14.20;;;;;;;;;;5073914;28;20226;-75
2022/03/20 14:50:39;;;;;;;14.60;13.10;;;;;;;;;;5073231;28;20210;-75
2022/03/20 14:53:07;;;;;;;16.50;14.80;;;;;;;;;;5073546;28;20203;-74
2022/03/20 14:55:36;;;;;;;17.80;15.03;;;;;;;;;;5073522;28;20202;-76
2022/03/20 14:58:04;;;;;;;16.57;14.87;;;;;;;;;;5073823;28;20276;-76
2022/03/20 15:00:33;;;;;;;16.47;14.27;;;;;;;;;;5072334;28;20203;-75
2022/03/20 15:03:03;;;;;;;17.37;14.80;;;;;;;;;;5073563;28;20290;-76
2022/03/20 15:05:31;;;;;;;15.67;14.00;;;;;;;;;;5073489;28;20657;-75
2022/03/20 15:13:31;;;;;;;16.97;14.80;;;;;;;;;;5070653;28;20665;-75
2022/03/20 15:16:00;;;;;;;18.23;14.37;;;;;;;;;;5073172;28;20240;-74
2022/03/20 15:18:29;;;;;;;17.13;14.23;;;;;;;;;;5063533;28;20195;-75
2022/03/20 15:20:58;;;;;;;17.10;14.67;;;;;;;;;;5061853;28;20211;-75
2022/03/20 15:23:26;;;;;;;18.03;14.67;;;;;;;;;;5070040;28;20202;-76
2022/03/20 15:25:55;;;;;;;16.53;14.63;;;;;;;;;;5071166;28;20203;-77